RYR9AZ LFOB-LIME
Flight info
| Callsign | RYR9AZ |
|---|---|
| Flight time | N/A |
| Altitude | 37000 |
| Route | LANVI DCT DEVDI DCT RIPUS DCT GERSA DCT SOSON DCT ODINA |
| Aircraft | B38M/M-SDE1FGHILORVWXY/HB1 |
Departure
| Time | 2026-05-06 19:18 |
|---|---|
| Airport | Beauvais-Tillé airport (LFOB) |
Arrival
| Time | N/A |
|---|---|
| Airport | Il Caravaggio International Airport (LIME) |
| Time | Latitude | Longitude | Altitude | Speed | Heading |
|---|---|---|---|---|---|
| 2026-05-06 19:02 | 49.45824 | 2.11345 | 368 ft | 0 kts | 311° |
| 2026-05-06 19:11 | 49.45822 | 2.11349 | 368 ft | 1 kts | 311° |
| 2026-05-06 19:11 | 49.45814 | 2.11363 | 368 ft | 2 kts | 307° |
| 2026-05-06 19:12 | 49.45806 | 2.11389 | 368 ft | 3 kts | 285° |
| 2026-05-06 19:12 | 49.45804 | 2.11419 | 368 ft | 3 kts | 262° |
| 2026-05-06 19:12 | 49.45810 | 2.11449 | 368 ft | 3 kts | 240° |
| 2026-05-06 19:12 | 49.45822 | 2.11469 | 368 ft | 0 kts | 221° |
| 2026-05-06 19:14 | 49.45821 | 2.11467 | 368 ft | 1 kts | 221° |
| 2026-05-06 19:14 | 49.45809 | 2.11451 | 368 ft | 4 kts | 221° |
| 2026-05-06 19:14 | 49.45782 | 2.11415 | 368 ft | 7 kts | 221° |
| 2026-05-06 19:15 | 49.45740 | 2.11358 | 368 ft | 9 kts | 221° |
| 2026-05-06 19:15 | 49.45700 | 2.11280 | 368 ft | 8 kts | 275° |
| 2026-05-06 19:15 | 49.45730 | 2.11195 | 368 ft | 10 kts | 303° |
| 2026-05-06 19:15 | 49.45775 | 2.11092 | 368 ft | 13 kts | 303° |
| 2026-05-06 19:16 | 49.45793 | 2.10994 | 368 ft | 6 kts | 232° |
| 2026-05-06 19:16 | 49.45765 | 2.10969 | 368 ft | 6 kts | 208° |
| 2026-05-06 19:16 | 49.45720 | 2.10932 | 368 ft | 9 kts | 208° |
| 2026-05-06 19:16 | 49.45659 | 2.10882 | 368 ft | 9 kts | 208° |
| 2026-05-06 19:17 | 49.45623 | 2.10869 | 368 ft | 5 kts | 143° |
| 2026-05-06 19:17 | 49.45615 | 2.10884 | 368 ft | 0 kts | 123° |
| 2026-05-06 19:17 | 49.45613 | 2.10888 | 368 ft | 4 kts | 123° |
| 2026-05-06 19:17 | 49.45508 | 2.11129 | 368 ft | 59 kts | 124° |
| 2026-05-06 19:18 | 49.45154 | 2.11944 | 368 ft | 122 kts | 123° |
| 2026-05-06 19:18 | 49.44590 | 2.13243 | 484 ft | 159 kts | 123° |
| 2026-05-06 19:18 | 49.43977 | 2.14655 | 1156 ft | 158 kts | 123° |
| 2026-05-06 19:18 | 49.43375 | 2.16039 | 1813 ft | 158 kts | 123° |
| 2026-05-06 19:19 | 49.42748 | 2.17463 | 2388 ft | 164 kts | 123° |
| 2026-05-06 19:19 | 49.42276 | 2.19051 | 2923 ft | 165 kts | 96° |
| 2026-05-06 19:19 | 49.42370 | 2.20814 | 3527 ft | 168 kts | 77° |
| 2026-05-06 19:19 | 49.42629 | 2.22614 | 4108 ft | 178 kts | 73° |
| 2026-05-06 19:20 | 49.42931 | 2.24514 | 4685 ft | 192 kts | 73° |
| 2026-05-06 19:20 | 49.43267 | 2.26584 | 5263 ft | 207 kts | 73° |
| 2026-05-06 19:20 | 49.43626 | 2.28847 | 5804 ft | 228 kts | 74° |
| 2026-05-06 19:20 | 49.43999 | 2.31300 | 6374 ft | 249 kts | 78° |
| 2026-05-06 19:21 | 49.43982 | 2.34091 | 6957 ft | 272 kts | 96° |
| 2026-05-06 19:21 | 49.43558 | 2.37038 | 7543 ft | 292 kts | 104° |
| 2026-05-06 19:21 | 49.42885 | 2.40047 | 8213 ft | 308 kts | 111° |
| 2026-05-06 19:21 | 49.41948 | 2.43134 | 8988 ft | 326 kts | 115° |
| 2026-05-06 19:22 | 49.40881 | 2.46270 | 9749 ft | 341 kts | 117° |
| 2026-05-06 19:22 | 49.39720 | 2.49496 | 10503 ft | 354 kts | 118° |
| 2026-05-06 19:22 | 49.38481 | 2.52866 | 11265 ft | 366 kts | 119° |
| 2026-05-06 19:22 | 49.37217 | 2.56285 | 12017 ft | 375 kts | 119° |
| 2026-05-06 19:23 | 49.35912 | 2.59817 | 12774 ft | 383 kts | 119° |
| 2026-05-06 19:23 | 49.34592 | 2.63390 | 13525 ft | 390 kts | 119° |
| 2026-05-06 19:23 | 49.33244 | 2.67040 | 14281 ft | 394 kts | 119° |
| 2026-05-06 19:23 | 49.31876 | 2.70688 | 14973 ft | 400 kts | 120° |
| 2026-05-06 19:24 | 49.30461 | 2.74427 | 15584 ft | 406 kts | 120° |
| 2026-05-06 19:24 | 49.29043 | 2.78211 | 16188 ft | 411 kts | 120° |
| 2026-05-06 19:24 | 49.27621 | 2.82029 | 16791 ft | 414 kts | 120° |
| 2026-05-06 19:24 | 49.26198 | 2.85833 | 17388 ft | 416 kts | 120° |
| 2026-05-06 19:25 | 49.24749 | 2.89691 | 17991 ft | 418 kts | 120° |
| 2026-05-06 19:25 | 49.23792 | 2.92252 | 18390 ft | 418 kts | 120° |
| 2026-05-06 19:25 | 49.21887 | 2.97392 | 19187 ft | 418 kts | 119° |
| 2026-05-06 19:25 | 49.20887 | 2.99949 | 19591 ft | 418 kts | 122° |
| 2026-05-06 19:26 | 49.18751 | 3.04871 | 20398 ft | 417 kts | 124° |
| 2026-05-06 19:26 | 49.17647 | 3.07279 | 20799 ft | 416 kts | 125° |
| 2026-05-06 19:26 | 49.15961 | 3.10875 | 21402 ft | 414 kts | 126° |
| 2026-05-06 19:26 | 49.14251 | 3.14436 | 22005 ft | 412 kts | 127° |
| 2026-05-06 19:27 | 49.12554 | 3.17899 | 22599 ft | 411 kts | 127° |
| 2026-05-06 19:27 | 49.10804 | 3.21433 | 23204 ft | 423 kts | 127° |
| 2026-05-06 19:27 | 49.09000 | 3.25054 | 23808 ft | 434 kts | 127° |
| 2026-05-06 19:27 | 49.07145 | 3.28764 | 24413 ft | 444 kts | 127° |
| 2026-05-06 19:28 | 49.05249 | 3.32547 | 25019 ft | 451 kts | 127° |
| 2026-05-06 19:28 | 49.03320 | 3.36384 | 25625 ft | 456 kts | 127° |
| 2026-05-06 19:28 | 49.01404 | 3.40185 | 26220 ft | 459 kts | 127° |
| 2026-05-06 19:28 | 48.99450 | 3.44053 | 26823 ft | 461 kts | 127° |
| 2026-05-06 19:29 | 48.97506 | 3.47964 | 27426 ft | 461 kts | 124° |
| 2026-05-06 19:29 | 48.96042 | 3.52232 | 28027 ft | 460 kts | 111° |
| 2026-05-06 19:29 | 48.95060 | 3.56883 | 28649 ft | 459 kts | 104° |
| 2026-05-06 19:29 | 48.94386 | 3.61593 | 29260 ft | 457 kts | 100° |
| 2026-05-06 19:30 | 48.93871 | 3.66357 | 29871 ft | 455 kts | 98° |
| 2026-05-06 19:30 | 48.93448 | 3.71114 | 30499 ft | 452 kts | 97° |
| 2026-05-06 19:30 | 48.93081 | 3.75825 | 31101 ft | 450 kts | 96° |
| 2026-05-06 19:30 | 48.92743 | 3.80578 | 31704 ft | 448 kts | 96° |
| 2026-05-06 19:31 | 48.92430 | 3.85228 | 32296 ft | 446 kts | 96° |
| 2026-05-06 19:31 | 48.92124 | 3.89932 | 32898 ft | 443 kts | 96° |
| 2026-05-06 19:31 | 48.91540 | 3.99175 | 34088 ft | 438 kts | 96° |
| 2026-05-06 19:32 | 48.91256 | 4.03811 | 34691 ft | 435 kts | 96° |
| 2026-05-06 19:32 | 48.90990 | 4.08347 | 35284 ft | 432 kts | 96° |
| 2026-05-06 19:32 | 48.90716 | 4.12897 | 35883 ft | 428 kts | 97° |
| 2026-05-06 19:32 | 48.90182 | 4.17327 | 36488 ft | 422 kts | 107° |
| 2026-05-06 19:33 | 48.89234 | 4.21514 | 36877 ft | 423 kts | 113° |
| 2026-05-06 19:33 | 48.88060 | 4.25635 | 36964 ft | 431 kts | 116° |
| 2026-05-06 19:33 | 48.85341 | 4.33971 | 36946 ft | 450 kts | 119° |
| 2026-05-06 19:34 | 48.82356 | 4.42401 | 36933 ft | 456 kts | 120° |
| 2026-05-06 19:34 | 48.79274 | 4.50839 | 36927 ft | 456 kts | 121° |
| 2026-05-06 19:35 | 48.76184 | 4.59220 | 36920 ft | 455 kts | 121° |
| 2026-05-06 19:35 | 48.73094 | 4.67568 | 36915 ft | 454 kts | 121° |
| 2026-05-06 19:36 | 48.70002 | 4.75921 | 36910 ft | 454 kts | 121° |
| 2026-05-06 19:36 | 48.66918 | 4.84254 | 36907 ft | 454 kts | 121° |
| 2026-05-06 19:37 | 48.63831 | 4.92589 | 36921 ft | 454 kts | 121° |
| 2026-05-06 19:37 | 48.60758 | 5.00876 | 36934 ft | 454 kts | 121° |
| 2026-05-06 19:38 | 48.57678 | 5.09195 | 36935 ft | 454 kts | 121° |
| 2026-05-06 19:38 | 48.54601 | 5.17522 | 36938 ft | 454 kts | 121° |
| 2026-05-06 19:39 | 48.51508 | 5.25840 | 36940 ft | 454 kts | 122° |
| 2026-05-06 19:39 | 48.48372 | 5.34101 | 36942 ft | 454 kts | 122° |
| 2026-05-06 19:40 | 48.45227 | 5.42335 | 36941 ft | 454 kts | 122° |
| 2026-05-06 19:40 | 48.42086 | 5.50563 | 36932 ft | 454 kts | 122° |
| 2026-05-06 19:41 | 48.38927 | 5.58847 | 36922 ft | 454 kts | 122° |
| 2026-05-06 19:41 | 48.35796 | 5.67069 | 36917 ft | 454 kts | 122° |
| 2026-05-06 19:42 | 48.32766 | 5.75394 | 36914 ft | 455 kts | 120° |
| 2026-05-06 19:42 | 48.29926 | 5.83873 | 36911 ft | 455 kts | 119° |
| 2026-05-06 19:43 | 48.27134 | 5.92445 | 36908 ft | 456 kts | 118° |
| 2026-05-06 19:43 | 48.24379 | 6.00986 | 36905 ft | 456 kts | 118° |
| 2026-05-06 19:44 | 48.21630 | 6.09524 | 36904 ft | 456 kts | 118° |
| 2026-05-06 19:44 | 48.18906 | 6.18077 | 36904 ft | 456 kts | 118° |
| 2026-05-06 19:45 | 48.16204 | 6.26746 | 36905 ft | 456 kts | 117° |
| 2026-05-06 19:45 | 48.13503 | 6.35307 | 36903 ft | 456 kts | 118° |
| 2026-05-06 19:46 | 48.10766 | 6.43845 | 36903 ft | 456 kts | 118° |
| 2026-05-06 19:46 | 48.08005 | 6.52415 | 36904 ft | 456 kts | 118° |
| 2026-05-06 19:47 | 48.05253 | 6.60938 | 36904 ft | 456 kts | 118° |
| 2026-05-06 19:47 | 48.02498 | 6.69456 | 36904 ft | 456 kts | 118° |
| 2026-05-06 19:48 | 47.99748 | 6.77972 | 36904 ft | 456 kts | 118° |
| 2026-05-06 19:48 | 47.96957 | 6.86517 | 36909 ft | 456 kts | 120° |
| 2026-05-06 19:49 | 47.94154 | 6.95008 | 36910 ft | 457 kts | 120° |
| 2026-05-06 19:49 | 47.91361 | 7.03450 | 36910 ft | 457 kts | 120° |
| 2026-05-06 19:50 | 47.88548 | 7.11955 | 36911 ft | 457 kts | 120° |
| 2026-05-06 19:50 | 47.85717 | 7.20473 | 36913 ft | 457 kts | 120° |
| 2026-05-06 19:51 | 47.82855 | 7.28889 | 36915 ft | 457 kts | 121° |
| 2026-05-06 19:51 | 47.79957 | 7.37329 | 36919 ft | 457 kts | 121° |
| 2026-05-06 19:52 | 47.77059 | 7.45733 | 36924 ft | 457 kts | 121° |
| 2026-05-06 19:52 | 47.73807 | 7.53792 | 36935 ft | 454 kts | 127° |
| 2026-05-06 19:53 | 47.70232 | 7.61478 | 36933 ft | 452 kts | 129° |
| 2026-05-06 19:53 | 47.66539 | 7.69094 | 36931 ft | 452 kts | 130° |
| 2026-05-06 19:54 | 47.62844 | 7.76620 | 36931 ft | 452 kts | 130° |
| 2026-05-06 19:54 | 47.59142 | 7.84126 | 36931 ft | 452 kts | 130° |
| 2026-05-06 19:55 | 47.55447 | 7.91606 | 36931 ft | 452 kts | 130° |
| 2026-05-06 19:55 | 47.51733 | 7.99130 | 36931 ft | 452 kts | 130° |
| 2026-05-06 19:56 | 47.48018 | 8.06600 | 36931 ft | 451 kts | 130° |
| 2026-05-06 19:56 | 47.44257 | 8.14046 | 36934 ft | 451 kts | 131° |
| 2026-05-06 19:57 | 47.40505 | 8.21446 | 36935 ft | 451 kts | 131° |
| 2026-05-06 19:57 | 47.36732 | 8.28890 | 36935 ft | 451 kts | 131° |
| 2026-05-06 19:58 | 47.32997 | 8.36272 | 36937 ft | 452 kts | 131° |
| 2026-05-06 19:58 | 47.29186 | 8.43648 | 36937 ft | 448 kts | 137° |
| 2026-05-06 19:59 | 47.26805 | 8.46539 | 36946 ft | 437 kts | 153° |
| 2026-05-06 19:59 | 47.24121 | 8.48475 | 36955 ft | 431 kts | 163° |
| 2026-05-06 19:59 | 47.18370 | 8.50808 | 36947 ft | 426 kts | 173° |